.
WxDataArchive / Data Records for 2009-09-05
2009-09-04 September 2009 2009-09-06

Data Records for Saturday, 05 September 2009

Time	Temp	Chill	HIndex	Humid	Dewpt	 Wind 	HiWind	WindDir	Rain 	Barom 
-----	----	-----	------	-----	-----	------	------	-------	-----	----- 
00:00	58.4	58.4	58.4	89	55.2	0	0	---	0.00	30.165 
00:05	58.3	58.3	58.3	90	55.4	0	0	---	0.00	30.165 
00:10	58.3	58.3	58.3	90	55.4	0	0	---	0.00	30.165 
00:15	58.1	58.1	58.1	90	55.2	0	0	---	0.00	30.167 
00:20	58.0	58.0	58.0	90	55.1	0	0	---	0.00	30.167 
00:25	57.8	57.8	57.8	90	54.9	0	0	---	0.00	30.167 
00:30	57.6	57.6	57.6	91	55.0	0	0	---	0.00	30.166 
00:35	57.5	57.5	57.5	91	54.9	0	0	---	0.00	30.166 
00:40	57.3	57.3	57.3	91	54.7	0	0	---	0.00	30.166 
00:45	57.2	57.2	57.2	91	54.6	0	0	---	0.00	30.167 
00:50	57.2	57.2	57.2	91	54.6	0	0	---	0.00	30.167 
00:55	57.2	57.2	57.2	92	54.9	0	0	---	0.00	30.167 
01:00	57.0	57.0	57.0	92	54.7	0	0	---	0.00	30.169 
01:05	56.9	56.9	56.9	92	54.6	0	0	---	0.00	30.169 
01:10	56.9	56.9	56.9	92	54.6	0	0	---	0.00	30.169 
01:15	56.7	56.7	56.7	92	54.4	0	0	---	0.00	30.169 
01:20	56.6	56.6	56.6	92	54.3	0	0	---	0.00	30.169 
01:25	56.6	56.6	56.6	92	54.3	0	0	---	0.00	30.169 
01:30	56.6	56.6	56.6	92	54.3	0	0	---	0.00	30.171 
01:35	56.5	56.5	56.5	93	54.5	0	0	---	0.00	30.171 
01:40	56.5	56.5	56.5	93	54.5	0	0	---	0.00	30.171 
01:45	56.3	56.3	56.3	93	54.3	0	0	---	0.00	30.175 
01:50	56.3	56.3	56.3	93	54.3	0	0	---	0.00	30.175 
01:55	56.3	56.3	56.3	93	54.3	0	0	---	0.00	30.175 
02:00	56.2	56.2	56.2	93	54.2	0	0	---	0.00	30.177 
02:05	56.0	56.0	56.0	93	54.0	0	0	---	0.00	30.177 
02:10	56.0	56.0	56.0	93	54.0	0	0	---	0.00	30.177 
02:15	55.9	55.9	55.9	94	54.2	0	0	---	0.00	30.174 
02:20	55.9	55.9	55.9	94	54.2	0	0	---	0.00	30.174 
02:25	55.7	55.7	55.7	94	54.0	0	0	---	0.00	30.174 
02:30	55.7	55.7	55.7	94	54.0	0	0	---	0.00	30.173 
02:35	55.7	55.7	55.7	94	54.0	0	0	---	0.00	30.173 
02:40	55.6	55.6	55.6	94	53.9	0	0	---	0.00	30.173 
02:45	55.6	55.6	55.6	94	53.9	0	0	---	0.00	30.172 
02:50	55.4	55.4	55.4	94	53.7	0	0	---	0.00	30.172 
02:55	55.3	55.3	55.3	94	53.6	0	0	---	0.00	30.172 
03:00	55.3	55.3	55.3	94	53.6	0	0	---	0.00	30.177 
03:05	55.3	55.3	55.3	94	53.6	0	0	---	0.00	30.177 
03:10	55.1	55.1	55.1	94	53.4	0	0	---	0.00	30.177 
03:15	55.1	55.1	55.1	94	53.4	0	0	---	0.00	30.180 
03:20	55.1	55.1	55.1	95	53.7	0	0	---	0.00	30.180 
03:25	55.1	55.1	55.1	95	53.7	0	0	---	0.00	30.180 
03:30	55.3	55.3	55.3	95	53.9	0	0	---	0.00	30.180 
03:35	55.4	55.4	55.4	95	54.0	0	0	---	0.00	30.180 
03:40	55.4	55.4	55.4	95	54.0	0	0	---	0.00	30.180 
03:45	55.4	55.4	55.4	95	54.0	0	0	---	0.00	30.177 
03:50	55.3	55.3	55.3	95	53.9	0	0	---	0.00	30.177 
03:55	55.3	55.3	55.3	95	53.9	0	0	---	0.00	30.177 
04:00	55.3	55.3	55.3	95	53.9	0	0	---	0.00	30.176 
04:05	55.3	55.3	55.3	95	53.9	0	0	---	0.00	30.176 
04:10	55.3	55.3	55.3	95	53.9	0	0	---	0.00	30.176 
04:15	55.3	55.3	55.3	95	53.9	0	0	---	0.00	30.179 
04:20	55.3	55.3	55.3	95	53.9	0	0	---	0.00	30.179 
04:25	55.3	55.3	55.3	95	53.9	0	0	---	0.00	30.179 
04:30	55.1	55.1	55.1	95	53.7	0	0	---	0.00	30.182 
04:35	55.1	55.1	55.1	95	53.7	0	0	---	0.00	30.182 
04:40	55.1	55.1	55.1	95	53.7	0	0	---	0.00	30.182 
04:45	55.1	55.1	55.1	95	53.7	0	0	---	0.00	30.182 
04:50	55.1	55.1	55.1	95	53.7	0	0	---	0.00	30.182 
04:55	55.1	55.1	55.1	96	54.0	0	0	---	0.00	30.182 
05:00	55.1	55.1	55.1	96	54.0	0	0	---	0.00	30.186 
05:05	55.0	55.0	55.0	95	53.6	0	0	---	0.00	30.186 
05:10	55.0	55.0	55.0	95	53.6	0	0	---	0.00	30.186 
05:15	54.8	54.8	54.8	96	53.7	0	0	---	0.00	30.191 
05:20	54.8	54.8	54.8	96	53.7	0	0	---	0.00	30.191 
05:25	54.7	54.7	54.7	96	53.6	0	0	---	0.00	30.191 
05:30	54.7	54.7	54.7	96	53.6	0	0	---	0.00	30.195 
05:35	54.5	54.5	54.5	96	53.4	0	0	---	0.00	30.195 
05:40	54.5	54.5	54.5	96	53.4	0	0	---	0.00	30.195 
05:45	54.4	54.4	54.4	96	53.3	0	0	---	0.00	30.198 
05:50	54.4	54.4	54.4	96	53.3	0	0	---	0.00	30.198 
05:55	54.4	54.4	54.4	96	53.3	0	0	---	0.00	30.198 
06:00	54.5	54.5	54.5	96	53.4	0	0	---	0.00	30.200 
06:05	54.7	54.7	54.7	96	53.6	0	0	---	0.00	30.200 
06:10	54.8	54.8	54.8	96	53.7	0	0	---	0.00	30.200 
06:15	54.8	54.8	54.8	96	53.7	0	0	---	0.00	30.205 
06:20	54.8	54.8	54.8	96	53.7	0	0	---	0.00	30.205 
06:25	54.7	54.7	54.7	96	53.6	0	0	---	0.00	30.205 
06:30	54.7	54.7	54.7	96	53.6	0	0	---	0.00	30.207 
06:35	54.7	54.7	54.7	96	53.6	0	0	---	0.00	30.207 
06:40	54.5	54.5	54.5	96	53.4	0	0	---	0.00	30.207 
06:45	54.5	54.5	54.5	96	53.4	0	0	---	0.00	30.210 
06:50	54.5	54.5	54.5	96	53.4	0	0	---	0.00	30.210 
06:55	54.5	54.5	54.5	96	53.4	0	0	---	0.00	30.210 
07:00	54.7	54.7	54.7	96	53.6	0	0	---	0.00	30.215 
07:05	54.7	54.7	54.7	96	53.6	0	0	---	0.00	30.215 
07:10	54.8	54.8	54.8	96	53.7	0	0	---	0.00	30.215 
07:15	54.8	54.8	54.8	96	53.7	0	0	---	0.00	30.219 
07:20	54.8	54.8	54.8	96	53.7	0	0	---	0.00	30.219 
07:25	54.8	54.8	54.8	96	53.7	0	0	---	0.00	30.219 
07:30	54.8	54.8	54.8	96	53.7	0	0	---	0.00	30.223 
07:35	55.0	55.0	55.0	96	53.9	0	0	---	0.00	30.223 
07:40	55.0	55.0	55.0	96	53.9	0	0	---	0.00	30.223 
07:45	55.0	55.0	55.0	96	53.9	0	0	---	0.00	30.230 
07:50	55.1	55.1	55.1	96	54.0	0	0	---	0.00	30.230 
07:55	55.3	55.3	55.3	96	54.2	0	0	---	0.00	30.230 
08:00	55.4	55.4	55.4	96	54.3	0	0	---	0.00	30.230 
08:05	55.6	55.6	55.6	96	54.5	0	0	---	0.00	30.230 
08:10	55.7	55.7	55.7	96	54.6	0	0	---	0.00	30.230 
08:15	56.2	56.2	56.2	96	55.1	0	0	---	0.00	30.236 
08:20	56.5	56.5	56.5	96	55.4	0	0	---	0.00	30.236 
08:25	56.7	56.7	56.7	96	55.6	0	0	---	0.00	30.236 
08:30	57.2	57.2	57.2	96	56.1	0	0	---	0.00	30.237 
08:35	57.6	57.6	57.6	97	56.8	0	1	90	0.00	30.237 
08:40	58.0	58.0	58.0	96	56.9	1	5	90	0.00	30.237 
08:45	58.1	58.1	58.1	96	57.0	1	3	112	0.00	30.238 
08:50	58.4	58.4	58.4	94	56.7	0	2	112	0.00	30.238 
08:55	58.9	58.9	58.9	93	56.9	0	1	112	0.00	30.238 
09:00	59.3	59.3	59.3	92	57.0	0	2	112	0.00	30.239 
09:05	59.6	59.6	59.6	90	56.7	0	3	112	0.00	30.239 
09:10	60.1	60.1	60.1	88	56.5	1	4	112	0.00	30.239 
09:15	60.5	60.5	60.5	85	56.0	1	4	112	0.00	30.241 
09:20	61.2	61.2	61.2	84	56.3	1	3	90	0.00	30.241 
09:25	61.6	61.6	61.6	83	56.4	1	3	90	0.00	30.241 
09:30	62.1	62.1	62.1	82	56.5	0	1	90	0.00	30.242 
09:35	62.4	62.4	62.4	79	55.8	2	5	90	0.00	30.242 
09:40	62.9	62.9	62.9	80	56.6	1	3	90	0.00	30.242 
09:45	63.4	63.4	63.4	79	56.8	1	3	90	0.00	30.245 
09:50	63.9	63.9	63.9	79	57.3	0	3	90	0.00	30.245 
09:55	64.3	64.3	64.3	76	56.6	1	4	112	0.00	30.245 
10:00	64.7	64.7	64.7	74	56.2	1	4	90	0.00	30.249 
10:05	65.2	65.2	65.2	73	56.3	1	5	90	0.00	30.249 
10:10	65.6	65.6	65.6	73	56.7	1	3	112	0.00	30.249 
10:15	66.3	66.3	66.3	70	56.2	1	2	112	0.00	30.249 
10:20	66.8	66.8	66.8	70	56.7	2	4	90	0.00	30.249 
10:25	67.3	67.3	67.3	67	56.0	1	3	90	0.00	30.249 
10:30	67.8	67.8	67.8	68	56.8	1	3	90	0.00	30.257 
10:35	67.9	67.9	67.9	67	56.5	1	4	90	0.00	30.257 
10:40	68.4	68.4	68.4	66	56.6	1	3	90	0.00	30.257 
10:45	69.1	69.1	69.1	64	56.4	0	3	90	0.00	30.259 
10:50	69.8	69.8	69.8	63	56.6	1	3	90	0.00	30.259 
10:55	70.3	70.3	70.3	62	56.7	1	3	90	0.00	30.259 
11:00	70.8	70.8	70.8	58	55.3	1	3	112	0.00	30.260 
11:05	70.9	70.9	70.9	58	55.4	1	5	90	0.00	30.260 
11:10	71.5	71.5	71.5	59	56.4	1	3	90	0.00	30.260 
11:15	71.8	71.8	71.8	55	54.7	2	4	90	0.00	30.259 
11:20	72.1	72.1	72.1	56	55.5	1	5	90	0.00	30.259 
11:25	72.7	72.7	72.7	54	55.1	1	3	90	0.00	30.259 
11:30	73.0	73.0	73.0	53	54.8	1	4	90	0.00	30.261 
11:35	73.3	73.3	73.3	51	54.1	1	5	90	0.00	30.261 
11:40	73.5	73.5	73.5	56	56.8	1	4	90	0.00	30.261 
11:45	73.9	73.9	73.9	53	55.7	1	2	90	0.00	30.260 
11:50	74.2	74.2	74.2	54	56.5	1	2	90	0.00	30.260 
11:55	74.4	74.4	74.4	52	55.6	1	3	90	0.00	30.260 
12:00	74.6	74.6	74.6	54	56.8	1	3	112	0.00	30.259 
12:05	74.7	74.7	74.7	53	56.4	2	4	112	0.00	30.259 
12:10	75.1	75.1	77.6	54	57.3	2	9	90	0.00	30.259 
12:15	75.1	75.1	77.6	54	57.3	1	4	90	0.00	30.260 
12:20	75.4	75.4	77.8	52	56.5	0	3	135	0.00	30.260 
12:25	76.0	76.0	78.1	51	56.5	1	2	135	0.00	30.260 
12:30	76.5	76.5	78.4	53	58.1	1	4	112	0.00	30.259 
12:35	76.1	76.1	78.1	51	56.6	2	6	112	0.00	30.259 
12:40	76.0	76.0	78.1	52	57.1	1	4	68	0.00	30.259 
12:45	76.0	76.0	78.1	53	57.6	2	5	90	0.00	30.256 
12:50	76.0	76.0	78.1	52	57.1	2	5	90	0.00	30.256 
12:55	75.8	75.8	78.0	52	56.9	1	6	90	0.00	30.256 
13:00	76.0	76.0	78.1	50	56.0	1	5	90	0.00	30.254 
13:05	76.3	76.3	78.2	50	56.3	1	3	112	0.00	30.254 
13:10	76.5	76.5	78.3	49	55.9	1	5	112	0.00	30.254 
13:15	76.8	76.8	78.5	50	56.7	1	4	112	0.00	30.252 
13:20	77.0	77.0	78.6	50	56.9	1	4	90	0.00	30.252 
13:25	77.2	77.2	78.7	48	56.0	1	4	90	0.00	30.252 
13:30	77.4	77.4	78.8	48	56.1	1	3	90	0.00	30.247 
13:35	77.7	77.7	78.9	48	56.4	1	4	135	0.00	30.247 
13:40	77.7	77.7	78.9	48	56.4	2	6	90	0.00	30.247 
13:45	77.9	77.9	79.0	47	56.0	1	3	90	0.00	30.245 
13:50	78.3	78.3	79.5	51	58.7	0	2	90	0.00	30.245 
13:55	78.3	78.3	79.3	47	56.4	2	3	90	0.00	30.245 
14:00	78.1	78.1	79.2	48	56.8	2	6	112	0.00	30.241 
14:05	77.9	77.9	79.0	46	55.4	1	3	112	0.00	30.241 
14:10	77.6	77.6	78.9	48	56.3	1	3	90	0.00	30.241 
14:15	76.8	76.8	78.4	47	55.0	1	5	112	0.00	30.245 
14:20	76.7	76.7	78.4	50	56.6	1	4	90	0.00	30.245 
14:25	77.0	77.0	78.6	50	56.9	1	5	90	0.00	30.245 
14:30	77.6	77.6	78.8	47	55.8	1	5	90	0.00	30.245 
14:35	77.6	77.6	78.7	43	53.3	1	5	90	0.00	30.245 
14:40	77.7	77.7	79.0	49	57.0	1	3	90	0.00	30.245 
14:45	78.1	78.1	79.0	45	55.0	1	4	90	0.00	30.245 
14:50	78.1	78.1	79.1	46	55.6	2	6	90	0.00	30.245 
14:55	78.1	78.1	79.2	48	56.8	2	6	90	0.00	30.245 
15:00	77.7	77.7	78.8	45	54.6	1	5	112	0.00	30.242 
15:05	78.1	78.1	79.0	45	55.0	1	4	112	0.00	30.242 
15:10	77.9	77.9	79.1	49	57.2	2	5	90	0.00	30.242 
15:15	78.3	78.3	79.3	47	56.4	1	2	112	0.00	30.232 
15:20	78.5	78.5	79.2	43	54.1	2	4	112	0.00	30.232 
15:25	78.5	78.5	79.2	44	54.7	1	3	112	0.00	30.232 
15:30	78.6	78.6	79.4	46	56.1	1	4	112	0.00	30.230 
15:35	78.8	78.8	79.6	46	56.2	1	3	135	0.00	30.230 
15:40	78.6	78.6	79.5	47	56.7	1	4	112	0.00	30.230 
15:45	78.1	78.1	79.2	48	56.8	0	2	112	0.00	30.230 
15:50	77.9	77.9	79.3	53	59.4	0	1	112	0.00	30.230 
15:55	78.1	78.1	79.3	49	57.4	0	2	112	0.00	30.230 
16:00	77.9	77.9	79.0	47	56.0	0	2	112	0.00	30.229 
16:05	77.7	77.7	78.9	46	55.2	1	4	112	0.00	30.229 
16:10	77.2	77.2	78.7	49	56.5	1	4	112	0.00	30.229 
16:15	76.8	76.8	78.5	50	56.7	1	3	112	0.00	30.227 
16:20	77.0	77.0	78.6	49	56.4	1	3	90	0.00	30.227 
16:25	77.4	77.4	78.7	47	55.6	0	3	90	0.00	30.227 
16:30	77.7	77.7	78.9	48	56.4	1	3	90	0.00	30.226 
16:35	77.9	77.9	79.1	48	56.6	1	2	90	0.00	30.226 
16:40	78.1	78.1	79.1	46	55.6	1	5	90	0.00	30.226 
16:45	77.9	77.9	78.9	44	54.2	1	3	90	0.00	30.222 
16:50	77.9	77.9	79.0	46	55.4	1	3	90	0.00	30.222 
16:55	77.6	77.6	78.8	46	55.2	0	2	90	0.00	30.222 
17:00	77.4	77.4	78.7	47	55.6	1	5	90	0.00	30.219 
17:05	77.6	77.6	79.0	51	58.0	1	4	112	0.00	30.219 
17:10	77.2	77.2	78.7	49	56.5	1	4	112	0.00	30.219 
17:15	76.8	76.8	78.4	48	55.6	1	3	112	0.00	30.217 
17:20	76.8	76.8	78.5	49	56.2	1	4	112	0.00	30.217 
17:25	76.8	76.8	78.5	49	56.2	0	2	112	0.00	30.217 
17:30	76.8	76.8	78.5	49	56.2	0	1	112	0.00	30.217 
17:35	76.8	76.8	78.4	47	55.0	1	4	112	0.00	30.217 
17:40	76.8	76.8	78.4	48	55.6	1	4	135	0.00	30.217 
17:45	76.7	76.7	78.4	48	55.5	0	2	135	0.00	30.215 
17:50	76.7	76.7	78.3	46	54.3	0	3	135	0.00	30.215 
17:55	76.7	76.7	78.4	48	55.5	0	1	135	0.00	30.215 
18:00	76.5	76.5	78.3	49	55.9	0	2	135	0.00	30.215 
18:05	76.3	76.3	78.2	47	54.6	0	2	135	0.00	30.215 
18:10	76.3	76.3	78.2	47	54.6	0	1	135	0.00	30.215 
18:15	76.1	76.1	78.1	47	54.4	0	2	135	0.00	30.216 
18:20	76.0	76.0	78.0	47	54.3	0	2	135	0.00	30.216 
18:25	76.0	76.0	78.0	47	54.3	0	1	135	0.00	30.216 
18:30	75.8	75.8	78.0	48	54.7	0	3	112	0.00	30.215 
18:35	75.8	75.8	78.0	51	56.4	0	1	112	0.00	30.215 
18:40	75.6	75.6	77.9	50	55.6	0	1	112	0.00	30.215 
18:45	75.4	75.4	77.8	50	55.4	0	2	112	0.00	30.215 
18:50	75.3	75.3	77.7	50	55.4	0	3	112	0.00	30.215 
18:55	75.1	75.1	77.7	51	55.7	0	1	112	0.00	30.215 
19:00	74.9	74.9	74.9	50	55.0	0	1	112	0.00	30.215 
19:05	74.7	74.7	74.7	51	55.4	0	1	112	0.00	30.215 
19:10	74.6	74.6	74.6	52	55.8	0	1	112	0.00	30.215 
19:15	74.4	74.4	74.4	53	56.1	0	2	112	0.00	30.215 
19:20	74.2	74.2	74.2	54	56.5	0	0	---	0.00	30.215 
19:25	73.9	73.9	73.9	54	56.2	0	2	112	0.00	30.215 
19:30	73.7	73.7	73.7	55	56.5	0	2	112	0.00	30.216 
19:35	73.5	73.5	73.5	55	56.3	0	1	112	0.00	30.216 
19:40	73.2	73.2	73.2	57	57.0	0	0	---	0.00	30.216 
19:45	72.8	72.8	72.8	57	56.7	0	0	---	0.00	30.216 
19:50	72.3	72.3	72.3	57	56.2	0	0	---	0.00	30.216 
19:55	71.8	71.8	71.8	58	56.2	0	0	---	0.00	30.216 
20:00	71.3	71.3	71.3	59	56.2	0	0	---	0.00	30.216 
20:05	70.8	70.8	70.8	59	55.7	0	0	---	0.00	30.216 
20:10	70.3	70.3	70.3	61	56.2	0	0	---	0.00	30.216 
20:15	69.8	69.8	69.8	62	56.2	0	0	---	0.00	30.216 
20:20	69.4	69.4	69.4	63	56.2	0	0	---	0.00	30.216 
20:25	68.9	68.9	68.9	63	55.8	0	0	---	0.00	30.216 
20:30	68.6	68.6	68.6	65	56.4	0	0	---	0.00	30.216 
20:35	68.3	68.3	68.3	65	56.1	0	0	---	0.00	30.216 
20:40	67.8	67.8	67.8	66	56.0	0	0	---	0.00	30.216 
20:45	67.4	67.4	67.4	67	56.1	0	0	---	0.00	30.218 
20:50	67.1	67.1	67.1	69	56.6	0	0	---	0.00	30.218 
20:55	66.8	66.8	66.8	69	56.3	0	0	---	0.00	30.218 
21:00	66.4	66.4	66.4	70	56.3	0	0	---	0.00	30.220 
21:05	66.1	66.1	66.1	70	56.0	0	0	---	0.00	30.220 
21:10	65.8	65.8	65.8	71	56.1	0	0	---	0.00	30.220 
21:15	65.5	65.5	65.5	72	56.2	0	0	---	0.00	30.215 
21:20	65.2	65.2	65.2	73	56.3	0	0	---	0.00	30.215 
21:25	65.0	65.0	65.0	74	56.5	0	0	---	0.00	30.215 
21:30	64.7	64.7	64.7	75	56.6	0	0	---	0.00	30.216 
21:35	64.5	64.5	64.5	76	56.8	0	0	---	0.00	30.216 
21:40	64.2	64.2	64.2	77	56.8	0	0	---	0.00	30.216 
21:45	64.0	64.0	64.0	77	56.6	0	0	---	0.00	30.221 
21:50	63.9	63.9	63.9	77	56.5	0	0	---	0.00	30.221 
21:55	63.5	63.5	63.5	77	56.2	0	0	---	0.00	30.221 
22:00	63.4	63.4	63.4	78	56.4	0	0	---	0.00	30.220 
22:05	63.2	63.2	63.2	79	56.6	0	0	---	0.00	30.220 
22:10	62.9	62.9	62.9	79	56.3	0	0	---	0.00	30.220 
22:15	62.7	62.7	62.7	80	56.4	0	0	---	0.00	30.221 
22:20	62.6	62.6	62.6	80	56.3	0	0	---	0.00	30.221 
22:25	62.4	62.4	62.4	81	56.5	0	0	---	0.00	30.221 
22:30	62.3	62.3	62.3	81	56.4	0	0	---	0.00	30.226 
22:35	62.1	62.1	62.1	81	56.2	0	0	---	0.00	30.226 
22:40	61.8	61.8	61.8	81	55.9	0	0	---	0.00	30.226 
22:45	61.6	61.6	61.6	82	56.0	0	0	---	0.00	30.228 
22:50	61.5	61.5	61.5	82	55.9	0	0	---	0.00	30.228 
22:55	61.3	61.3	61.3	83	56.1	0	0	---	0.00	30.228 
23:00	61.3	61.3	61.3	83	56.1	0	0	---	0.00	30.229 
23:05	61.2	61.2	61.2	83	56.0	0	0	---	0.00	30.229 
23:10	61.2	61.2	61.2	83	56.0	0	0	---	0.00	30.229 
23:15	61.2	61.2	61.2	83	56.0	0	0	---	0.00	30.225 
23:20	61.2	61.2	61.2	83	56.0	0	0	---	0.00	30.225 
23:25	61.5	61.5	61.5	81	55.6	0	1	112	0.00	30.225 
23:30	62.0	62.0	62.0	80	55.8	0	1	112	0.00	30.227 
23:35	62.3	62.3	62.3	78	55.3	0	1	112	0.00	30.227 
23:40	62.6	62.6	62.6	78	55.6	0	0	---	0.00	30.227 
23:45	62.6	62.6	62.6	78	55.6	0	0	---	0.00	30.225 
23:50	62.4	62.4	62.4	79	55.8	0	0	---	0.00	30.225 
23:55	62.1	62.1	62.1	79	55.5	0	0	---	0.00	30.225 

CoCoRaHS
IN-AL-39
A2 Web Hosting
Creative Commons License
GoDaddy
search engine by freefind advanced

loaded 2018-11-12 20:26:09 • last modified 2010-11-18 10:43:29
Privacy PolicyDisclaimer
• wx.awcolley.com is powered by PmWiki v.2002016 •
• all content (unless otherwise noted) © 2018 A W Colley